sensor_id;sensor_type;location;lat;lon;timestamp;pressure;altitude;pressure_sealevel;temperature;humidity
79372;BME280;68914;51.262;6.802;2023-06-22T00:00:51;101498.41;;;25.22;43.61
79372;BME280;68914;51.262;6.802;2023-06-22T00:01:52;101494.41;;;25.10;43.74
79372;BME280;68914;51.262;6.802;2023-06-22T00:02:52;101498.13;;;25.24;43.73
79372;BME280;68914;51.262;6.802;2023-06-22T00:03:53;101488.69;;;25.26;43.53
79372;BME280;68914;51.262;6.802;2023-06-22T00:04:53;101494.28;;;25.30;43.58
79372;BME280;68914;51.262;6.802;2023-06-22T00:05:54;101495.13;;;25.31;43.74
79372;BME280;68914;51.262;6.802;2023-06-22T00:06:55;101506.09;;;25.44;43.90
79372;BME280;68914;51.262;6.802;2023-06-22T00:07:55;101506.09;;;25.44;43.62
79372;BME280;68914;51.262;6.802;2023-06-22T00:08:56;101504.19;;;25.50;43.84
79372;BME280;68914;51.262;6.802;2023-06-22T00:09:57;101502.06;;;25.42;44.01
79372;BME280;68914;51.262;6.802;2023-06-22T00:10:57;101498.84;;;25.40;43.68
79372;BME280;68914;51.262;6.802;2023-06-22T00:11:58;101501.59;;;25.35;43.97
79372;BME280;68914;51.262;6.802;2023-06-22T00:12:58;101503.41;;;25.44;43.73
79372;BME280;68914;51.262;6.802;2023-06-22T00:13:59;101502.31;;;25.45;43.88
79372;BME280;68914;51.262;6.802;2023-06-22T00:15:00;101503.44;;;25.39;43.62
79372;BME280;68914;51.262;6.802;2023-06-22T00:16:00;101499.59;;;25.45;43.53
79372;BME280;68914;51.262;6.802;2023-06-22T00:17:01;101497.84;;;25.25;43.73
79372;BME280;68914;51.262;6.802;2023-06-22T00:18:02;101497.28;;;25.29;44.01
79372;BME280;68914;51.262;6.802;2023-06-22T00:19:03;101496.19;;;25.35;44.39
79372;BME280;68914;51.262;6.802;2023-06-22T00:20:04;101498.88;;;25.35;43.83
79372;BME280;68914;51.262;6.802;2023-06-22T00:21:06;101503.53;;;25.24;44.40
79372;BME280;68914;51.262;6.802;2023-06-22T00:22:07;101501.38;;;25.21;44.25
79372;BME280;68914;51.262;6.802;2023-06-22T00:23:07;101491.38;;;25.26;44.36
79372;BME280;68914;51.262;6.802;2023-06-22T00:24:08;101503.81;;;25.22;44.17
79372;BME280;68914;51.262;6.802;2023-06-22T00:25:09;101501.72;;;25.09;44.76
79372;BME280;68914;51.262;6.802;2023-06-22T00:26:10;101494.13;;;25.16;44.43
79372;BME280;68914;51.262;6.802;2023-06-22T00:27:11;101495.22;;;25.10;44.72
79372;BME280;68914;51.262;6.802;2023-06-22T00:28:12;101500.31;;;25.17;44.98
79372;BME280;68914;51.262;6.802;2023-06-22T00:29:13;101498.41;;;25.22;44.21
79372;BME280;68914;51.262;6.802;2023-06-22T00:30:15;101492.28;;;25.12;44.50
79372;BME280;68914;51.262;6.802;2023-06-22T00:31:16;101495.22;;;25.05;44.85
79372;BME280;68914;51.262;6.802;2023-06-22T00:32:17;101496.06;;;25.11;44.63
79372;BME280;68914;51.262;6.802;2023-06-22T00:33:21;101499.94;;;24.84;45.45
79372;BME280;68914;51.262;6.802;2023-06-22T00:34:22;101498.00;;;24.90;45.30
79372;BME280;68914;51.262;6.802;2023-06-22T00:35:22;101496.38;;;24.94;45.29
79372;BME280;68914;51.262;6.802;2023-06-22T00:36:23;101509.09;;;24.83;45.84
79372;BME280;68914;51.262;6.802;2023-06-22T00:37:25;101500.94;;;24.93;45.67
79372;BME280;68914;51.262;6.802;2023-06-22T00:38:27;101503.44;;;24.85;45.99
79372;BME280;68914;51.262;6.802;2023-06-22T00:39:27;101499.66;;;24.81;45.78
79372;BME280;68914;51.262;6.802;2023-06-22T00:40:32;101505.31;;;24.84;46.18
79372;BME280;68914;51.262;6.802;2023-06-22T00:41:32;101499.09;;;24.89;46.02
79372;BME280;68914;51.262;6.802;2023-06-22T00:42:33;101500.91;;;25.03;45.46
79372;BME280;68914;51.262;6.802;2023-06-22T00:43:34;101505.25;;;24.99;45.29
79372;BME280;68914;51.262;6.802;2023-06-22T00:44:36;101500.91;;;24.98;45.74
79372;BME280;68914;51.262;6.802;2023-06-22T00:45:37;101496.69;;;24.82;46.16
79372;BME280;68914;51.262;6.802;2023-06-22T00:46:38;101494.56;;;24.79;45.86
79372;BME280;68914;51.262;6.802;2023-06-22T00:47:39;101496.69;;;24.87;45.93
79372;BME280;68914;51.262;6.802;2023-06-22T00:48:40;101493.41;;;24.90;46.34
79372;BME280;68914;51.262;6.802;2023-06-22T00:49:44;101497.75;;;24.86;46.05
79372;BME280;68914;51.262;6.802;2023-06-22T00:50:47;101489.91;;;24.90;46.10
79372;BME280;68914;51.262;6.802;2023-06-22T00:51:52;101493.38;;;25.00;45.86
79372;BME280;68914;51.262;6.802;2023-06-22T00:52:57;101489.59;;;25.01;45.97
79372;BME280;68914;51.262;6.802;2023-06-22T00:53:59;101495.09;;;24.76;46.19
79372;BME280;68914;51.262;6.802;2023-06-22T00:55:01;101492.94;;;24.78;46.12
79372;BME280;68914;51.262;6.802;2023-06-22T00:56:03;101490.72;;;24.90;46.11
79372;BME280;68914;51.262;6.802;2023-06-22T00:57:04;101503.41;;;24.90;45.99
79372;BME280;68914;51.262;6.802;2023-06-22T00:58:06;101489.47;;;24.72;46.51
79372;BME280;68914;51.262;6.802;2023-06-22T00:59:10;101497.22;;;24.84;46.04
79372;BME280;68914;51.262;6.802;2023-06-22T01:00:13;101492.34;;;24.91;46.09
79372;BME280;68914;51.262;6.802;2023-06-22T01:01:14;101491.28;;;24.87;46.31
79372;BME280;68914;51.262;6.802;2023-06-22T01:02:15;101495.09;;;24.76;46.40
79372;BME280;68914;51.262;6.802;2023-06-22T01:03:15;101490.75;;;24.85;46.27
79372;BME280;68914;51.262;6.802;2023-06-22T01:04:17;101495.31;;;24.90;46.46
79372;BME280;68914;51.262;6.802;2023-06-22T01:05:20;101493.69;;;24.89;46.55
79372;BME280;68914;51.262;6.802;2023-06-22T01:06:37;101490.75;;;24.85;46.63
79372;BME280;68914;51.262;6.802;2023-06-22T01:08:57;101487.00;;;24.76;46.71
79372;BME280;68914;51.262;6.802;2023-06-22T01:11:17;101485.09;;;24.87;46.86
79372;BME280;68914;51.262;6.802;2023-06-22T01:12:20;101489.94;;;24.85;47.20
79372;BME280;68914;51.262;6.802;2023-06-22T01:13:28;101482.13;;;24.78;47.18
79372;BME280;68914;51.262;6.802;2023-06-22T01:14:38;101489.16;;;24.79;47.27
79372;BME280;68914;51.262;6.802;2023-06-22T01:15:45;101486.41;;;24.89;47.03
79372;BME280;68914;51.262;6.802;2023-06-22T01:16:48;101489.47;;;24.67;47.54
79372;BME280;68914;51.262;6.802;2023-06-22T01:17:52;101484.06;;;24.72;47.61
79372;BME280;68914;51.262;6.802;2023-06-22T01:18:57;101479.19;;;24.74;47.65
79372;BME280;68914;51.262;6.802;2023-06-22T01:19:59;101483.50;;;24.70;47.84
79372;BME280;68914;51.262;6.802;2023-06-22T01:21:01;101478.94;;;24.76;47.80
79372;BME280;68914;51.262;6.802;2023-06-22T01:22:05;101478.63;;;24.83;47.54
79372;BME280;68914;51.262;6.802;2023-06-22T01:23:17;101482.13;;;24.83;47.51
79372;BME280;68914;51.262;6.802;2023-06-22T01:24:30;101475.94;;;24.77;47.89
79372;BME280;68914;51.262;6.802;2023-06-22T01:25:41;101477.03;;;24.76;47.95
79372;BME280;68914;51.262;6.802;2023-06-22T01:26:57;101475.09;;;24.87;47.80
79372;BME280;68914;51.262;6.802;2023-06-22T01:29:17;101469.16;;;24.85;47.93
79372;BME280;68914;51.262;6.802;2023-06-22T01:30:19;101471.03;;;24.90;47.74
79372;BME280;68914;51.262;6.802;2023-06-22T01:31:25;101473.97;;;24.93;48.05
79372;BME280;68914;51.262;6.802;2023-06-22T01:32:31;101471.91;;;24.80;48.28
79372;BME280;68914;51.262;6.802;2023-06-22T01:33:35;101470.59;;;24.67;48.79
79372;BME280;68914;51.262;6.802;2023-06-22T01:34:38;101466.47;;;24.85;48.18
79372;BME280;68914;51.262;6.802;2023-06-22T01:35:40;101466.25;;;24.76;48.33
79372;BME280;68914;51.262;6.802;2023-06-22T01:36:42;101460.06;;;24.66;48.54
79372;BME280;68914;51.262;6.802;2023-06-22T01:37:44;101468.16;;;24.71;48.48
79372;BME280;68914;51.262;6.802;2023-06-22T01:38:46;101462.75;;;24.76;48.36
79372;BME280;68914;51.262;6.802;2023-06-22T01:39:47;101458.94;;;24.77;48.59
79372;BME280;68914;51.262;6.802;2023-06-22T01:40:49;101458.75;;;24.58;49.42
79372;BME280;68914;51.262;6.802;2023-06-22T01:41:52;101462.50;;;24.62;48.97
79372;BME280;68914;51.262;6.802;2023-06-22T01:42:54;101462.56;;;24.47;49.59
79372;BME280;68914;51.262;6.802;2023-06-22T01:43:55;101462.78;;;24.66;49.37
79372;BME280;68914;51.262;6.802;2023-06-22T01:44:56;101460.06;;;24.66;49.13
79372;BME280;68914;51.262;6.802;2023-06-22T01:46:02;101461.16;;;24.65;49.00
79372;BME280;68914;51.262;6.802;2023-06-22T01:47:04;101461.72;;;24.62;49.28
79372;BME280;68914;51.262;6.802;2023-06-22T01:48:05;101461.50;;;24.43;50.05
79372;BME280;68914;51.262;6.802;2023-06-22T01:49:06;101459.06;;;24.46;49.59
79372;BME280;68914;51.262;6.802;2023-06-22T01:50:08;101460.41;;;24.49;49.69
79372;BME280;68914;51.262;6.802;2023-06-22T01:51:09;101458.25;;;24.46;49.87
79372;BME280;68914;51.262;6.802;2023-06-22T01:52:10;101453.13;;;24.49;49.79
79372;BME280;68914;51.262;6.802;2023-06-22T01:53:11;101457.19;;;24.42;50.15
79372;BME280;68914;51.262;6.802;2023-06-22T01:54:12;101463.59;;;24.61;49.75
79372;BME280;68914;51.262;6.802;2023-06-22T01:55:13;101464.16;;;24.58;50.13
79372;BME280;68914;51.262;6.802;2023-06-22T01:56:16;101462.53;;;24.57;50.00
79372;BME280;68914;51.262;6.802;2023-06-22T01:57:17;101465.22;;;24.67;49.70
79372;BME280;68914;51.262;6.802;2023-06-22T01:58:27;101464.41;;;24.62;50.10
79372;BME280;68914;51.262;6.802;2023-06-22T01:59:52;101459.34;;;24.45;50.41
79372;BME280;68914;51.262;6.802;2023-06-22T02:01:11;101462.53;;;24.57;50.31
79372;BME280;68914;51.262;6.802;2023-06-22T02:02:15;101461.47;;;24.63;49.88
79372;BME280;68914;51.262;6.802;2023-06-22T02:03:20;101462.28;;;24.53;50.51
79372;BME280;68914;51.262;6.802;2023-06-22T02:04:32;101460.69;;;24.52;50.25
79372;BME280;68914;51.262;6.802;2023-06-22T02:05:37;101463.66;;;24.51;50.34
79372;BME280;68914;51.262;6.802;2023-06-22T02:06:42;101459.88;;;24.47;50.53
79372;BME280;68914;51.262;6.802;2023-06-22T02:08:09;101458.78;;;24.53;50.65
79372;BME280;68914;51.262;6.802;2023-06-22T02:09:15;101457.19;;;24.47;50.64
79372;BME280;68914;51.262;6.802;2023-06-22T02:10:19;101454.50;;;24.37;50.70
79372;BME280;68914;51.262;6.802;2023-06-22T02:11:21;101454.75;;;24.56;50.53
79372;BME280;68914;51.262;6.802;2023-06-22T02:12:25;101461.19;;;24.60;50.44
79372;BME280;68914;51.262;6.802;2023-06-22T02:13:28;101449.09;;;24.52;50.46
79372;BME280;68914;51.262;6.802;2023-06-22T02:14:29;101458.75;;;24.58;50.49
79372;BME280;68914;51.262;6.802;2023-06-22T02:15:30;101449.09;;;24.47;50.67
79372;BME280;68914;51.262;6.802;2023-06-22T02:16:31;101457.69;;;24.54;50.63
79372;BME280;68914;51.262;6.802;2023-06-22T02:17:33;101462.31;;;24.48;50.96
79372;BME280;68914;51.262;6.802;2023-06-22T02:18:34;101460.97;;;24.36;51.33
79372;BME280;68914;51.262;6.802;2023-06-22T02:19:37;101454.75;;;24.45;51.10
79372;BME280;68914;51.262;6.802;2023-06-22T02:20:39;101461.22;;;24.34;51.27
79372;BME280;68914;51.262;6.802;2023-06-22T02:21:40;101455.31;;;24.27;51.46
79372;BME280;68914;51.262;6.802;2023-06-22T02:22:41;101452.91;;;24.36;51.08
79372;BME280;68914;51.262;6.802;2023-06-22T02:23:45;101460.19;;;24.40;51.12
79372;BME280;68914;51.262;6.802;2023-06-22T02:24:46;101464.97;;;24.53;50.87
79372;BME280;68914;51.262;6.802;2023-06-22T02:25:47;101456.38;;;24.31;51.54
79372;BME280;68914;51.262;6.802;2023-06-22T02:26:47;101449.13;;;24.42;51.35
79372;BME280;68914;51.262;6.802;2023-06-22T02:27:48;101450.47;;;24.34;51.39
79372;BME280;68914;51.262;6.802;2023-06-22T02:28:51;101448.31;;;24.41;51.47
79372;BME280;68914;51.262;6.802;2023-06-22T02:29:52;101446.41;;;24.37;51.57
79372;BME280;68914;51.262;6.802;2023-06-22T02:30:52;101453.19;;;24.39;51.41
79372;BME280;68914;51.262;6.802;2023-06-22T02:31:54;101450.22;;;24.41;51.11
79372;BME280;68914;51.262;6.802;2023-06-22T02:32:54;101449.66;;;24.44;50.99
79372;BME280;68914;51.262;6.802;2023-06-22T02:33:59;101442.66;;;24.33;51.22
79372;BME280;68914;51.262;6.802;2023-06-22T02:35:00;101443.25;;;24.19;51.91
79372;BME280;68914;51.262;6.802;2023-06-22T02:36:04;101434.31;;;24.24;51.92
79372;BME280;68914;51.262;6.802;2023-06-22T02:37:05;101436.19;;;24.28;51.41
79372;BME280;68914;51.262;6.802;2023-06-22T02:38:06;101443.50;;;24.18;51.78
79372;BME280;68914;51.262;6.802;2023-06-22T02:39:08;101435.16;;;24.19;51.97
79372;BME280;68914;51.262;6.802;2023-06-22T02:40:13;101434.31;;;24.19;52.13
79372;BME280;68914;51.262;6.802;2023-06-22T02:41:15;101438.16;;;23.97;52.58
79372;BME280;68914;51.262;6.802;2023-06-22T02:42:18;101435.66;;;24.26;52.07
79372;BME280;68914;51.262;6.802;2023-06-22T02:43:21;101432.16;;;24.26;51.72
79372;BME280;68914;51.262;6.802;2023-06-22T02:44:21;101436.50;;;24.17;52.35
79372;BME280;68914;51.262;6.802;2023-06-22T02:45:22;101429.47;;;24.26;52.08
79372;BME280;68914;51.262;6.802;2023-06-22T02:46:23;101429.47;;;24.26;51.92
79372;BME280;68914;51.262;6.802;2023-06-22T02:47:24;101420.84;;;24.24;51.69
79372;BME280;68914;51.262;6.802;2023-06-22T02:48:24;101425.69;;;24.22;52.41
79372;BME280;68914;51.262;6.802;2023-06-22T02:49:25;101427.03;;;24.29;51.81
79372;BME280;68914;51.262;6.802;2023-06-22T02:50:26;101428.38;;;24.32;51.81
79372;BME280;68914;51.262;6.802;2023-06-22T02:51:27;101430.81;;;24.28;52.14
79372;BME280;68914;51.262;6.802;2023-06-22T02:52:28;101420.03;;;24.18;52.22
79372;BME280;68914;51.262;6.802;2023-06-22T02:53:29;101423.00;;;24.22;52.43
79372;BME280;68914;51.262;6.802;2023-06-22T02:54:30;101423.59;;;24.09;52.63
79372;BME280;68914;51.262;6.802;2023-06-22T02:55:31;101422.75;;;24.18;52.20
79372;BME280;68914;51.262;6.802;2023-06-22T02:56:33;101424.63;;;24.28;51.90
79372;BME280;68914;51.262;6.802;2023-06-22T02:57:35;101421.72;;;23.99;52.70
79372;BME280;68914;51.262;6.802;2023-06-22T02:58:36;101420.34;;;24.07;52.51
79372;BME280;68914;51.262;6.802;2023-06-22T02:59:40;101421.75;;;23.89;53.00
79372;BME280;68914;51.262;6.802;2023-06-22T03:00:44;101424.16;;;24.00;52.97
79372;BME280;68914;51.262;6.802;2023-06-22T03:01:44;101420.06;;;24.13;52.50
79372;BME280;68914;51.262;6.802;2023-06-22T03:02:58;101420.59;;;24.20;52.42
79372;BME280;68914;51.262;6.802;2023-06-22T03:03:59;101417.63;;;24.17;52.27
79372;BME280;68914;51.262;6.802;2023-06-22T03:05:00;101416.03;;;24.05;52.79
79372;BME280;68914;51.262;6.802;2023-06-22T03:06:02;101418.22;;;24.03;53.02
79372;BME280;68914;51.262;6.802;2023-06-22T03:07:03;101417.41;;;23.98;53.09
79372;BME280;68914;51.262;6.802;2023-06-22T03:08:05;101407.97;;;23.95;53.22
79372;BME280;68914;51.262;6.802;2023-06-22T03:09:08;101416.59;;;24.02;52.89
79372;BME280;68914;51.262;6.802;2023-06-22T03:10:11;101422.53;;;23.94;53.21
79372;BME280;68914;51.262;6.802;2023-06-22T03:11:12;101413.91;;;23.97;53.03
79372;BME280;68914;51.262;6.802;2023-06-22T03:12:13;101423.63;;;23.93;53.21
79372;BME280;68914;51.262;6.802;2023-06-22T03:13:23;101420.13;;;23.83;53.96
79372;BME280;68914;51.262;6.802;2023-06-22T03:14:24;101409.06;;;23.79;53.94
79372;BME280;68914;51.262;6.802;2023-06-22T03:15:26;101405.59;;;23.89;53.63
79372;BME280;68914;51.262;6.802;2023-06-22T03:16:29;101409.06;;;23.89;53.75
79372;BME280;68914;51.262;6.802;2023-06-22T03:17:31;101405.84;;;23.92;53.65
79372;BME280;68914;51.262;6.802;2023-06-22T03:18:31;101413.41;;;23.85;53.90
79372;BME280;68914;51.262;6.802;2023-06-22T03:19:32;101405.59;;;23.73;54.33
79372;BME280;68914;51.262;6.802;2023-06-22T03:20:33;101406.13;;;23.75;53.88
79372;BME280;68914;51.262;6.802;2023-06-22T03:21:34;101404.78;;;23.68;54.53
79372;BME280;68914;51.262;6.802;2023-06-22T03:22:35;101405.03;;;23.82;54.06
79372;BME280;68914;51.262;6.802;2023-06-22T03:23:36;101403.69;;;23.89;53.90
79372;BME280;68914;51.262;6.802;2023-06-22T03:24:37;101402.59;;;23.90;53.80
79372;BME280;68914;51.262;6.802;2023-06-22T03:25:40;101403.72;;;23.84;54.24
79372;BME280;68914;51.262;6.802;2023-06-22T03:26:41;101402.34;;;23.92;54.00
79372;BME280;68914;51.262;6.802;2023-06-22T03:27:42;101396.38;;;24.05;53.49
79372;BME280;68914;51.262;6.802;2023-06-22T03:28:45;101405.28;;;23.95;53.73
79372;BME280;68914;51.262;6.802;2023-06-22T03:29:45;101397.22;;;23.90;53.75
79372;BME280;68914;51.262;6.802;2023-06-22T03:30:46;101400.47;;;23.67;54.63
79372;BME280;68914;51.262;6.802;2023-06-22T03:31:47;101397.22;;;23.90;53.78
79372;BME280;68914;51.262;6.802;2023-06-22T03:32:48;101394.78;;;23.94;53.59
79372;BME280;68914;51.262;6.802;2023-06-22T03:33:49;101398.53;;;24.03;53.82
79372;BME280;68914;51.262;6.802;2023-06-22T03:34:50;101401.00;;;23.89;54.01
79372;BME280;68914;51.262;6.802;2023-06-22T03:35:51;101399.94;;;23.85;54.26
79372;BME280;68914;51.262;6.802;2023-06-22T03:36:54;101392.63;;;24.01;53.52
79372;BME280;68914;51.262;6.802;2023-06-22T03:37:55;101392.63;;;24.01;53.52
79372;BME280;68914;51.262;6.802;2023-06-22T03:38:56;101386.44;;;24.00;53.59
79372;BME280;68914;51.262;6.802;2023-06-22T03:39:57;101388.56;;;23.98;53.87
79372;BME280;68914;51.262;6.802;2023-06-22T03:40:57;101384.81;;;24.04;53.56
79372;BME280;68914;51.262;6.802;2023-06-22T03:41:59;101385.94;;;23.88;54.42
79372;BME280;68914;51.262;6.802;2023-06-22T03:43:00;101381.06;;;23.90;53.84
79372;BME280;68914;51.262;6.802;2023-06-22T03:44:03;101379.44;;;23.94;53.88
79372;BME280;68914;51.262;6.802;2023-06-22T03:45:04;101369.75;;;23.83;53.89
79372;BME280;68914;51.262;6.802;2023-06-22T03:46:06;101376.19;;;23.97;53.73
79372;BME280;68914;51.262;6.802;2023-06-22T03:47:07;101365.94;;;23.99;53.71
79372;BME280;68914;51.262;6.802;2023-06-22T03:48:08;101375.41;;;23.97;54.11
79372;BME280;68914;51.262;6.802;2023-06-22T03:49:11;101372.97;;;23.90;53.96
79372;BME280;68914;51.262;6.802;2023-06-22T03:50:12;101380.19;;;24.10;53.24
79372;BME280;68914;51.262;6.802;2023-06-22T03:51:14;101379.41;;;23.99;53.60
79372;BME280;68914;51.262;6.802;2023-06-22T03:52:14;101382.63;;;24.12;53.67
79372;BME280;68914;51.262;6.802;2023-06-22T03:53:15;101387.44;;;24.25;52.91
79372;BME280;68914;51.262;6.802;2023-06-22T03:54:15;101383.38;;;24.27;53.31
79372;BME280;68914;51.262;6.802;2023-06-22T03:55:16;101381.47;;;24.33;52.93
79372;BME280;68914;51.262;6.802;2023-06-22T03:56:17;101380.09;;;24.51;52.49
79372;BME280;68914;51.262;6.802;2023-06-22T03:57:20;101378.22;;;24.31;52.67
79372;BME280;68914;51.262;6.802;2023-06-22T03:58:21;101375.03;;;24.29;53.13
79372;BME280;68914;51.262;6.802;2023-06-22T03:59:22;101377.44;;;24.25;53.28
79372;BME280;68914;51.262;6.802;2023-06-22T04:00:23;101373.19;;;24.14;53.19
79372;BME280;68914;51.262;6.802;2023-06-22T04:01:24;101369.84;;;24.38;52.45
79372;BME280;68914;51.262;6.802;2023-06-22T04:02:25;101375.03;;;24.39;52.54
79372;BME280;68914;51.262;6.802;2023-06-22T04:03:26;101369.09;;;24.22;53.06
79372;BME280;68914;51.262;6.802;2023-06-22T04:04:26;101377.16;;;24.32;52.92
79372;BME280;68914;51.262;6.802;2023-06-22T04:05:28;101385.84;;;24.14;53.04
79372;BME280;68914;51.262;6.802;2023-06-22T04:06:28;101383.44;;;24.12;53.32
79372;BME280;68914;51.262;6.802;2023-06-22T04:07:29;101385.00;;;24.18;53.21
79372;BME280;68914;51.262;6.802;2023-06-22T04:08:30;101379.44;;;23.89;54.02
79372;BME280;68914;51.262;6.802;2023-06-22T04:09:30;101385.03;;;24.13;53.64
79372;BME280;68914;51.262;6.802;2023-06-22T04:10:31;101381.53;;;24.13;53.53
79372;BME280;68914;51.262;6.802;2023-06-22T04:11:32;101388.03;;;24.12;53.68
79372;BME280;68914;51.262;6.802;2023-06-22T04:12:32;101389.09;;;24.16;53.51
79372;BME280;68914;51.262;6.802;2023-06-22T04:13:33;101385.78;;;24.29;52.68
79372;BME280;68914;51.262;6.802;2023-06-22T04:14:33;101385.00;;;24.28;52.88
79372;BME280;68914;51.262;6.802;2023-06-22T04:15:34;101383.38;;;24.22;52.97
79372;BME280;68914;51.262;6.802;2023-06-22T04:16:35;101389.81;;;24.37;53.00
79372;BME280;68914;51.262;6.802;2023-06-22T04:17:35;101378.47;;;24.35;53.02
79372;BME280;68914;51.262;6.802;2023-06-22T04:18:36;101385.22;;;24.37;53.05
79372;BME280;68914;51.262;6.802;2023-06-22T04:19:36;101377.13;;;24.42;52.71
79372;BME280;68914;51.262;6.802;2023-06-22T04:20:37;101383.88;;;24.35;52.76
79372;BME280;68914;51.262;6.802;2023-06-22T04:21:38;101384.16;;;24.33;53.08
79372;BME280;68914;51.262;6.802;2023-06-22T04:22:38;101374.97;;;24.34;52.57
79372;BME280;68914;51.262;6.802;2023-06-22T04:23:39;101387.16;;;24.21;53.34
79372;BME280;68914;51.262;6.802;2023-06-22T04:24:39;101380.44;;;24.24;52.96
79372;BME280;68914;51.262;6.802;2023-06-22T04:25:40;101380.38;;;24.44;52.75
79372;BME280;68914;51.262;6.802;2023-06-22T04:26:41;101380.41;;;24.29;52.52
79372;BME280;68914;51.262;6.802;2023-06-22T04:27:42;101381.94;;;24.56;51.92
79372;BME280;68914;51.262;6.802;2023-06-22T04:28:43;101377.69;;;24.44;51.98
79372;BME280;68914;51.262;6.802;2023-06-22T04:29:43;101370.13;;;24.31;52.46
79372;BME280;68914;51.262;6.802;2023-06-22T04:30:49;101387.66;;;24.44;52.54
79372;BME280;68914;51.262;6.802;2023-06-22T04:31:52;101374.44;;;24.37;52.71
79372;BME280;68914;51.262;6.802;2023-06-22T04:32:53;101384.72;;;24.30;52.54
79372;BME280;68914;51.262;6.802;2023-06-22T04:33:59;101380.13;;;24.41;52.51
79372;BME280;68914;51.262;6.802;2023-06-22T04:35:06;101384.16;;;24.43;52.35
79372;BME280;68914;51.262;6.802;2023-06-22T04:36:07;101380.81;;;24.62;52.10
79372;BME280;68914;51.262;6.802;2023-06-22T04:37:08;101377.59;;;24.60;51.93
79372;BME280;68914;51.262;6.802;2023-06-22T04:38:09;101381.94;;;24.56;51.86
79372;BME280;68914;51.262;6.802;2023-06-22T04:39:11;101380.88;;;24.51;52.16
79372;BME280;68914;51.262;6.802;2023-06-22T04:40:11;101381.91;;;24.61;52.53
79372;BME280;68914;51.262;6.802;2023-06-22T04:41:14;101376.56;;;24.56;51.98
79372;BME280;68914;51.262;6.802;2023-06-22T04:42:26;101377.38;;;24.51;52.44
79372;BME280;68914;51.262;6.802;2023-06-22T04:43:26;101381.91;;;24.61;52.18
79372;BME280;68914;51.262;6.802;2023-06-22T04:44:30;101380.59;;;24.53;52.61
79372;BME280;68914;51.262;6.802;2023-06-22T04:45:31;101371.19;;;24.45;51.86
79372;BME280;68914;51.262;6.802;2023-06-22T04:46:32;101383.28;;;24.53;51.95
79372;BME280;68914;51.262;6.802;2023-06-22T04:47:38;101380.22;;;24.70;51.14
79372;BME280;68914;51.262;6.802;2023-06-22T04:48:39;101374.53;;;24.76;51.36
79372;BME280;68914;51.262;6.802;2023-06-22T04:49:40;101374.88;;;24.65;51.53
79372;BME280;68914;51.262;6.802;2023-06-22T04:50:43;101377.13;;;24.47;52.10
79372;BME280;68914;51.262;6.802;2023-06-22T04:51:45;101378.75;;;24.48;52.34
79372;BME280;68914;51.262;6.802;2023-06-22T04:52:45;101378.75;;;24.48;51.75
79372;BME280;68914;51.262;6.802;2023-06-22T04:53:46;101382.50;;;24.52;51.74
79372;BME280;68914;51.262;6.802;2023-06-22T04:54:47;101376.59;;;24.45;51.88
79372;BME280;68914;51.262;6.802;2023-06-22T04:55:55;101386.22;;;24.62;51.47
79372;BME280;68914;51.262;6.802;2023-06-22T04:56:56;101387.91;;;24.47;51.66
79372;BME280;68914;51.262;6.802;2023-06-22T04:57:57;101384.69;;;24.45;51.56
79372;BME280;68914;51.262;6.802;2023-06-22T04:59:04;101382.41;;;24.68;50.96
79372;BME280;68914;51.262;6.802;2023-06-22T05:00:05;101384.28;;;24.72;51.08
79372;BME280;68914;51.262;6.802;2023-06-22T05:01:12;101389.09;;;24.81;51.66
79372;BME280;68914;51.262;6.802;2023-06-22T05:02:13;101390.59;;;24.97;51.07
79372;BME280;68914;51.262;6.802;2023-06-22T05:03:14;101386.84;;;24.93;50.67
79372;BME280;68914;51.262;6.802;2023-06-22T05:04:18;101387.91;;;24.97;50.67
79372;BME280;68914;51.262;6.802;2023-06-22T05:05:19;101385.69;;;25.04;50.66
79372;BME280;68914;51.262;6.802;2023-06-22T05:06:20;101392.44;;;25.07;50.29
79372;BME280;68914;51.262;6.802;2023-06-22T05:07:21;101391.94;;;24.99;50.59
79372;BME280;68914;51.262;6.802;2023-06-22T05:08:21;101391.38;;;25.02;50.97
79372;BME280;68914;51.262;6.802;2023-06-22T05:09:27;101394.50;;;24.75;51.13
79372;BME280;68914;51.262;6.802;2023-06-22T05:10:27;101385.59;;;24.80;50.69
79372;BME280;68914;51.262;6.802;2023-06-22T05:11:28;101396.28;;;24.95;50.23
79372;BME280;68914;51.262;6.802;2023-06-22T05:12:30;101395.75;;;24.93;50.40
79372;BME280;68914;51.262;6.802;2023-06-22T05:13:33;101390.84;;;25.00;50.13
79372;BME280;68914;51.262;6.802;2023-06-22T05:14:34;101391.13;;;24.99;50.37
79372;BME280;68914;51.262;6.802;2023-06-22T05:15:34;101392.00;;;24.89;50.39
79372;BME280;68914;51.262;6.802;2023-06-22T05:16:44;101391.28;;;24.73;51.29
79372;BME280;68914;51.262;6.802;2023-06-22T05:17:45;101389.97;;;24.71;51.35
79372;BME280;68914;51.262;6.802;2023-06-22T05:18:45;101381.97;;;24.45;51.75
79372;BME280;68914;51.262;6.802;2023-06-22T05:19:46;101386.75;;;24.59;51.65
79372;BME280;68914;51.262;6.802;2023-06-22T05:20:50;101388.91;;;24.67;51.14
79372;BME280;68914;51.262;6.802;2023-06-22T05:21:50;101382.91;;;24.75;51.38
79372;BME280;68914;51.262;6.802;2023-06-22T05:22:51;101392.38;;;24.72;51.29
79372;BME280;68914;51.262;6.802;2023-06-22T05:23:52;101396.72;;;24.68;51.68
79372;BME280;68914;51.262;6.802;2023-06-22T05:24:53;101392.91;;;24.69;51.52
79372;BME280;68914;51.262;6.802;2023-06-22T05:25:54;101387.84;;;24.58;52.19
79372;BME280;68914;51.262;6.802;2023-06-22T05:26:55;101382.81;;;24.41;52.14
79372;BME280;68914;51.262;6.802;2023-06-22T05:27:55;101392.25;;;24.38;52.42
79372;BME280;68914;51.262;6.802;2023-06-22T05:28:56;101389.13;;;24.70;52.39
79372;BME280;68914;51.262;6.802;2023-06-22T05:29:57;101393.72;;;24.75;52.32